GQPP Airport Information

Runway Information
Runway 02 Length 7961 ft width 148 ft
Elevation 4 ft Threshold 0 ft Heading 14
Runway 20 Length 7961 ft Width 148 ft
Elevation 7 ft Threshold 0 ft Heading 194
Airport Frequencies
Type A/G Name RDO Frequency 886.1 MHZ
Type TWR Name TWR Frequency 120.8 MHZ
Airport Navaids
Type VOR-DME Name Nouadhibou Frequency 113500 KHZ
Airport Weather Information & NOTAM
ADDS - METARS form results

(1906 UTC 25 June 2018)
 
METAR text: GQPP 251900Z 35017KT 8000 NSC 23/16 Q1011 NOSIG
Conditions at: GQPP (NOUADHIBOU , MR) observed 1900 UTC 25 June 2018
Temperature: 23.0°C (73°F)
Dewpoint: 16.0°C (61°F) [RH = 65%]
Pressure (altimeter): 29.85 inches Hg (1011.0 mb)
Winds: from the N (350 degrees) at 20 MPH (17 knots; 8.8 m/s)
Visibility: 5 miles (8 km)
Ceiling: at least 12,000 feet AGL
Clouds: sky clear below 12,000 feet AGL
Weather: no significant weather observed at this time